createdAt,value
2023-04-25T00:01:39.084Z,7.65
2023-04-25T00:04:10.906Z,7.52
2023-04-25T00:06:38.891Z,7.51
2023-04-25T00:09:08.512Z,7.51
2023-04-25T00:11:36.600Z,7.75
2023-04-25T00:14:04.689Z,7.56
2023-04-25T00:16:35.081Z,7.50
2023-04-25T00:19:04.346Z,7.56
2023-04-25T00:21:33.824Z,7.51
2023-04-25T00:24:01.979Z,7.63
2023-04-25T00:26:30.005Z,7.53
2023-04-25T00:28:57.886Z,7.38
2023-04-25T00:31:25.893Z,7.49
2023-04-25T00:33:54.138Z,7.30
2023-04-25T00:36:22.125Z,7.19
2023-04-25T00:38:51.531Z,7.22
2023-04-25T00:41:19.467Z,7.05
2023-04-25T00:43:48.366Z,7.20
2023-04-25T00:46:16.343Z,7.02
2023-04-25T00:48:44.319Z,7.07
2023-04-25T00:51:13.586Z,7.23
2023-04-25T00:53:41.685Z,7.10
2023-04-25T00:56:10.936Z,7.29
2023-04-25T00:58:39.838Z,7.16
2023-04-25T01:01:09.251Z,7.04
2023-04-25T01:03:41.833Z,7.18
2023-04-25T01:06:11.350Z,7.16
2023-04-25T01:08:40.398Z,7.05
2023-04-25T01:11:08.455Z,7.00
2023-04-25T01:13:38.023Z,6.93
2023-04-25T01:16:06.772Z,7.03
2023-04-25T01:18:35.091Z,7.01
2023-04-25T01:21:11.076Z,7.09
2023-04-25T01:23:39.805Z,6.97
2023-04-25T01:26:08.733Z,6.86
2023-04-25T01:28:36.738Z,6.79
2023-04-25T01:31:05.139Z,6.96
2023-04-25T01:33:33.090Z,6.75
2023-04-25T01:36:01.087Z,6.59
2023-04-25T01:38:30.466Z,6.53
2023-04-25T01:40:58.427Z,6.64
2023-04-25T01:43:27.491Z,6.74
2023-04-25T01:45:55.666Z,6.75
2023-04-25T01:48:23.650Z,6.90
2023-04-25T01:50:51.565Z,6.71
2023-04-25T01:53:19.508Z,6.84
2023-04-25T01:55:48.843Z,6.76
2023-04-25T01:58:16.716Z,6.74
2023-04-25T02:00:44.661Z,6.65
2023-04-25T02:03:12.697Z,6.60
2023-04-25T02:05:41.326Z,6.55
2023-04-25T02:08:09.915Z,6.44
2023-04-25T02:10:38.192Z,6.52
2023-04-25T02:13:07.560Z,6.65
2023-04-25T02:15:35.486Z,6.50
2023-04-25T02:18:03.529Z,6.64
2023-04-25T02:20:32.494Z,6.64
2023-04-25T02:23:00.555Z,6.51
2023-04-25T02:25:28.692Z,6.53
2023-04-25T02:27:56.604Z,6.55
2023-04-25T02:30:25.995Z,6.54
2023-04-25T02:32:53.950Z,6.41
2023-04-25T02:35:22.073Z,6.48
2023-04-25T02:37:50.003Z,6.56
2023-04-25T02:40:17.890Z,6.54
2023-04-25T02:42:46.741Z,6.59
2023-04-25T02:45:14.644Z,6.69
2023-04-25T02:47:44.240Z,6.54
2023-04-25T02:50:12.362Z,6.35
2023-04-25T02:52:40.254Z,6.52
2023-04-25T02:55:08.901Z,6.35
2023-04-25T02:57:36.812Z,6.22
2023-04-25T03:00:06.790Z,6.28
2023-04-25T03:02:34.846Z,6.02
2023-04-25T03:05:04.485Z,6.03
2023-04-25T03:07:32.406Z,6.11
2023-04-25T03:10:00.689Z,6.18
2023-04-25T03:12:28.650Z,5.90
2023-04-25T03:14:56.557Z,5.87
2023-04-25T03:17:24.542Z,6.06
2023-04-25T03:19:52.540Z,5.80
2023-04-25T03:22:21.808Z,5.85
2023-04-25T03:24:49.714Z,5.72
2023-04-25T03:27:17.704Z,5.77
2023-04-25T03:29:45.696Z,5.86
2023-04-25T03:32:13.815Z,5.76
2023-04-25T03:34:41.955Z,5.70
2023-04-25T03:37:09.854Z,5.72
2023-04-25T03:39:39.525Z,5.69
2023-04-25T03:42:07.540Z,5.97
2023-04-25T03:44:35.435Z,6.02
2023-04-25T03:47:03.315Z,5.94
2023-04-25T03:49:31.603Z,6.05
2023-04-25T03:51:59.499Z,5.76
2023-04-25T03:54:27.382Z,5.74
2023-04-25T03:56:56.708Z,5.85
2023-04-25T03:59:24.648Z,5.73
2023-04-25T04:01:52.566Z,6.01
2023-04-25T04:04:21.205Z,5.85
2023-04-25T04:06:49.494Z,5.84
2023-04-25T04:09:17.803Z,5.79
2023-04-25T04:11:45.760Z,5.83
2023-04-25T04:14:15.185Z,5.82
2023-04-25T04:16:43.073Z,5.84
2023-04-25T04:19:11.035Z,5.89
2023-04-25T04:21:38.931Z,5.99
2023-04-25T04:24:07.827Z,5.81
2023-04-25T04:26:35.900Z,5.84
2023-04-25T04:29:03.952Z,5.82
2023-04-25T04:31:33.800Z,5.83
2023-04-25T04:34:02.742Z,5.98
2023-04-25T04:36:30.647Z,5.82
2023-04-25T04:38:58.573Z,5.82
2023-04-25T04:41:26.514Z,5.85
2023-04-25T04:43:54.416Z,5.93
2023-04-25T04:46:22.693Z,5.93
2023-04-25T04:48:52.713Z,6.18
2023-04-25T04:51:21.712Z,6.10
2023-04-25T04:53:49.797Z,5.91
2023-04-25T04:56:17.816Z,5.84
2023-04-25T04:58:45.720Z,5.93
2023-04-25T05:01:13.645Z,5.88
2023-04-25T05:03:41.782Z,5.84
2023-04-25T05:06:11.170Z,5.79
2023-04-25T05:08:39.075Z,5.86
2023-04-25T05:11:07.056Z,5.95
2023-04-25T05:13:34.990Z,5.74
2023-04-25T05:16:02.940Z,5.70
2023-04-25T05:18:30.899Z,5.72
2023-04-25T05:20:58.804Z,5.79
2023-04-25T05:23:28.934Z,5.89
2023-04-25T05:25:56.949Z,5.85
2023-04-25T05:28:24.867Z,5.79
2023-04-25T05:30:53.321Z,5.85
2023-04-25T05:33:21.586Z,5.87
2023-04-25T05:35:49.531Z,5.75
2023-04-25T05:38:17.406Z,5.72
2023-04-25T05:40:47.144Z,5.84
2023-04-25T05:43:15.033Z,6.16
2023-04-25T05:45:43.127Z,6.08
2023-04-25T05:48:11.305Z,6.04
2023-04-25T05:50:39.244Z,5.88
2023-04-25T05:53:07.208Z,6.09
2023-04-25T05:55:35.119Z,6.00
2023-04-25T05:58:04.370Z,6.08
2023-04-25T06:00:32.306Z,6.19
2023-04-25T06:03:00.621Z,6.25
2023-04-25T06:05:28.911Z,6.14
2023-04-25T06:07:56.884Z,6.04
2023-04-25T06:10:24.953Z,6.30
2023-04-25T06:12:52.814Z,6.44
2023-04-25T06:15:27.941Z,6.62
2023-04-25T06:17:57.153Z,6.55
2023-04-25T06:20:25.690Z,6.45
2023-04-25T06:22:54.099Z,6.38
2023-04-25T06:25:22.373Z,6.40
2023-04-25T06:27:50.357Z,6.33
2023-04-25T06:30:19.502Z,6.21
2023-04-25T06:32:48.827Z,6.41
2023-04-25T06:35:17.117Z,6.29
2023-04-25T06:37:45.000Z,6.19
2023-04-25T06:40:13.128Z,6.42
2023-04-25T06:42:41.105Z,6.29
2023-04-25T06:45:10.031Z,6.14
2023-04-25T06:47:37.939Z,6.16
2023-04-25T06:50:08.557Z,6.14
2023-04-25T06:52:36.451Z,6.01
2023-04-25T06:55:05.944Z,6.13
2023-04-25T06:57:33.919Z,6.33
2023-04-25T07:00:02.415Z,6.33
2023-04-25T07:02:30.809Z,6.33
2023-04-25T07:05:00.859Z,6.06
2023-04-25T07:07:30.195Z,6.20
2023-04-25T07:09:58.193Z,6.27
2023-04-25T07:12:26.155Z,6.28
2023-04-25T07:14:54.073Z,6.17
2023-04-25T07:17:22.716Z,6.20
2023-04-25T07:19:50.813Z,6.56
2023-04-25T07:22:18.868Z,6.57
2023-04-25T07:24:49.898Z,6.60
2023-04-25T07:27:17.930Z,6.48
2023-04-25T07:29:45.979Z,6.43
2023-04-25T07:32:15.104Z,6.62
2023-04-25T07:34:43.190Z,6.64
2023-04-25T07:37:11.456Z,6.67
2023-04-25T07:39:39.466Z,6.76
2023-04-25T07:42:09.539Z,6.62
2023-04-25T07:44:39.776Z,6.74
2023-04-25T07:47:09.100Z,6.81
2023-04-25T07:49:37.058Z,7.10
2023-04-25T07:52:06.195Z,7.13
2023-04-25T07:54:34.342Z,7.43
2023-04-25T07:57:02.248Z,7.27
2023-04-25T07:59:31.751Z,7.37
2023-04-25T08:01:59.654Z,7.46
2023-04-25T08:04:27.797Z,7.18
2023-04-25T08:06:55.836Z,6.72
2023-04-25T08:09:23.868Z,6.57
2023-04-25T08:11:51.785Z,6.92
2023-04-25T08:14:19.682Z,7.15
2023-04-25T08:16:48.998Z,7.12
2023-04-25T08:19:16.895Z,7.34
2023-04-25T08:21:44.806Z,7.64
2023-04-25T08:24:12.713Z,7.75
2023-04-25T08:26:41.721Z,7.63
2023-04-25T08:29:09.635Z,7.66
2023-04-25T08:31:37.648Z,7.76
2023-04-25T08:34:06.997Z,7.79
2023-04-25T08:36:39.423Z,7.63
2023-04-25T08:39:08.270Z,7.55
2023-04-25T08:41:36.714Z,7.81
2023-04-25T08:44:05.521Z,8.16
2023-04-25T08:46:33.662Z,8.29
2023-04-25T08:49:03.389Z,7.86
2023-04-25T08:51:34.534Z,8.10
2023-04-25T08:54:28.056Z,8.28
2023-04-25T08:56:59.924Z,7.46
2023-04-25T08:59:28.267Z,6.66
2023-04-25T09:01:56.988Z,5.76
2023-04-25T09:04:25.432Z,5.76
2023-04-25T09:06:54.862Z,6.15
2023-04-25T09:09:22.791Z,6.19
2023-04-25T09:11:50.930Z,6.59
2023-04-25T09:14:21.560Z,6.78
2023-04-25T09:17:03.587Z,6.75
2023-04-25T09:19:40.284Z,7.11
2023-04-25T09:22:10.240Z,7.11
2023-04-25T09:24:39.968Z,7.72
2023-04-25T09:27:08.635Z,8.42
2023-04-25T09:29:38.661Z,7.97
2023-04-25T09:32:14.718Z,7.30
2023-04-25T09:34:43.900Z,6.65
2023-04-25T09:37:13.751Z,6.68
2023-04-25T09:39:41.827Z,7.02
2023-04-25T09:42:11.592Z,7.37
2023-04-25T09:44:39.478Z,7.19
2023-04-25T09:47:12.024Z,7.58
2023-04-25T09:49:42.313Z,8.19
2023-04-25T09:52:10.594Z,8.27
2023-04-25T09:54:39.963Z,8.56
2023-04-25T09:57:13.314Z,8.76
2023-04-25T09:59:45.875Z,8.72
2023-04-25T10:02:14.498Z,8.92
2023-04-25T10:04:43.311Z,9.33
2023-04-25T10:07:11.531Z,9.44
2023-04-25T10:09:41.777Z,9.61
2023-04-25T10:12:10.168Z,9.53
2023-04-25T10:14:38.249Z,9.20
2023-04-25T10:17:06.231Z,9.34
2023-04-25T10:19:34.388Z,9.20
2023-04-25T10:22:09.671Z,8.29
2023-04-25T10:24:38.109Z,7.42
2023-04-25T10:27:07.992Z,7.21
2023-04-25T10:29:36.013Z,6.48
2023-04-25T10:32:04.590Z,6.39
2023-04-25T10:34:42.923Z,5.82
2023-04-25T10:37:11.718Z,5.84
2023-04-25T10:39:41.405Z,6.41
2023-04-25T10:42:10.927Z,6.71
2023-04-25T10:44:40.321Z,6.67
2023-04-25T10:47:10.636Z,7.11
2023-04-25T10:49:40.453Z,7.27
2023-04-25T10:52:20.273Z,7.39
2023-04-25T10:54:53.564Z,7.49
2023-04-25T10:57:39.427Z,7.99
2023-04-25T11:00:12.178Z,8.06
2023-04-25T11:02:44.072Z,8.25
2023-04-25T11:05:12.335Z,8.48
2023-04-25T11:07:42.265Z,8.43
2023-04-25T11:10:11.414Z,9.10
2023-04-25T11:12:41.514Z,9.31
2023-04-25T11:15:10.592Z,9.22
2023-04-25T11:17:40.575Z,9.30
2023-04-25T11:20:12.478Z,9.47
2023-04-25T11:22:42.937Z,9.43
2023-04-25T11:25:12.423Z,9.25
2023-04-25T11:27:52.213Z,9.23
2023-04-25T11:30:21.593Z,9.51
2023-04-25T11:32:50.339Z,9.53
2023-04-25T11:35:18.811Z,9.42
2023-04-25T11:37:46.987Z,9.49
2023-04-25T11:40:15.494Z,9.01
2023-04-25T11:42:47.988Z,8.80
2023-04-25T11:45:16.904Z,8.66
2023-04-25T11:47:45.192Z,9.07
2023-04-25T11:50:15.465Z,9.24
2023-04-25T11:52:44.563Z,9.22
2023-04-25T11:55:15.689Z,9.01
2023-04-25T11:57:44.341Z,9.02
2023-04-25T12:00:19.062Z,9.60
2023-04-25T12:02:49.867Z,10.10
2023-04-25T12:07:49.206Z,9.48
2023-04-25T12:10:18.364Z,8.54
2023-04-25T12:12:47.577Z,8.48
2023-04-25T12:15:20.521Z,8.22
2023-04-25T12:17:49.821Z,8.25
2023-04-25T12:20:19.131Z,8.08
2023-04-25T12:22:48.344Z,8.36
2023-04-25T12:25:36.394Z,8.87
2023-04-25T12:28:15.096Z,8.92
2023-04-25T12:31:01.893Z,9.17
2023-04-25T12:33:31.684Z,9.12
2023-04-25T12:36:00.454Z,9.69
2023-04-25T12:38:30.339Z,9.77
2023-04-25T12:40:58.657Z,10.44
2023-04-25T12:43:27.025Z,10.56
2023-04-25T12:45:56.177Z,10.57
2023-04-25T12:48:25.767Z,10.40
2023-04-25T12:50:54.200Z,10.78
2023-04-25T12:53:24.654Z,11.08
2023-04-25T12:55:52.964Z,11.37
2023-04-25T12:58:22.124Z,11.27
2023-04-25T13:00:50.117Z,11.09
2023-04-25T13:03:19.114Z,10.64
2023-04-25T13:05:48.499Z,9.90
2023-04-25T13:08:16.414Z,9.72
2023-04-25T13:10:44.418Z,9.68
2023-04-25T13:13:12.343Z,10.02
2023-04-25T13:15:40.268Z,9.62
2023-04-25T13:18:08.718Z,9.73
2023-04-25T13:20:36.693Z,9.85
2023-04-25T13:23:06.061Z,10.48
2023-04-25T13:25:34.024Z,10.53
2023-04-25T13:28:01.949Z,11.20
2023-04-25T13:30:29.888Z,11.56
2023-04-25T13:32:59.600Z,11.79
2023-04-25T13:35:27.717Z,12.16
2023-04-25T13:37:55.733Z,12.17
2023-04-25T13:40:25.738Z,11.16
2023-04-25T13:42:53.848Z,10.98
2023-04-25T13:45:21.879Z,11.25
2023-04-25T13:47:50.008Z,10.99
2023-04-25T13:50:18.066Z,11.84
2023-04-25T13:52:46.097Z,11.43
2023-04-25T13:55:13.982Z,11.07
2023-04-25T13:57:43.623Z,10.51
2023-04-25T14:00:12.687Z,10.02
2023-04-25T14:02:40.895Z,10.60
2023-04-25T14:05:10.434Z,10.43
2023-04-25T14:07:38.927Z,11.37
2023-04-25T14:10:08.004Z,11.61
2023-04-25T14:12:36.156Z,11.14
2023-04-25T14:15:06.315Z,10.98
2023-04-25T14:17:34.425Z,10.96
2023-04-25T14:20:02.639Z,10.93
2023-04-25T14:22:30.639Z,11.19
2023-04-25T14:24:59.115Z,10.62
2023-04-25T14:27:29.137Z,10.66
2023-04-25T14:29:57.427Z,10.90
2023-04-25T14:32:26.958Z,10.25
2023-04-25T14:34:54.933Z,10.83
2023-04-25T14:37:22.859Z,11.26
2023-04-25T14:39:50.819Z,11.87
2023-04-25T14:42:18.704Z,10.27
2023-04-25T14:44:46.841Z,10.37
2023-04-25T14:47:14.785Z,9.92
2023-04-25T14:49:44.080Z,10.16
2023-04-25T14:52:12.024Z,10.04
2023-04-25T14:54:39.939Z,10.13
2023-04-25T14:57:08.505Z,9.73
2023-04-25T14:59:36.549Z,10.05
2023-04-25T15:02:04.611Z,10.91
2023-04-25T15:04:33.146Z,11.55
2023-04-25T15:07:02.507Z,11.95
2023-04-25T15:09:30.447Z,10.78
2023-04-25T15:11:58.970Z,10.08
2023-04-25T15:14:26.937Z,9.88
2023-04-25T15:16:54.981Z,10.15
2023-04-25T15:19:22.973Z,10.16
2023-04-25T15:21:50.922Z,9.75
2023-04-25T15:24:20.216Z,9.33
2023-04-25T15:26:48.122Z,9.31
2023-04-25T15:29:16.478Z,8.92
2023-04-25T15:31:44.453Z,9.16
2023-04-25T15:34:12.363Z,9.19
2023-04-25T15:36:40.310Z,8.83
2023-04-25T15:39:08.242Z,7.83
2023-04-25T15:41:38.245Z,6.93
2023-04-25T15:44:07.970Z,7.17
2023-04-25T15:46:36.058Z,7.67
2023-04-25T15:49:04.055Z,8.95
2023-04-25T15:51:31.994Z,9.32
2023-04-25T15:53:59.904Z,9.74
2023-04-25T15:56:27.837Z,9.53
2023-04-25T15:58:57.165Z,10.02
2023-04-25T16:01:26.290Z,10.65
2023-04-25T16:03:54.551Z,10.51
2023-04-25T16:06:22.837Z,11.10
2023-04-25T16:08:52.116Z,10.47
2023-04-25T16:11:20.248Z,10.15
2023-04-25T16:13:48.303Z,10.53
2023-04-25T16:16:17.788Z,9.95
2023-04-25T16:18:45.777Z,9.00
2023-04-25T16:21:17.332Z,8.76
2023-04-25T16:23:45.396Z,9.10
2023-04-25T16:26:13.454Z,8.50
2023-04-25T16:28:41.331Z,8.23
2023-04-25T16:31:09.335Z,8.90
2023-04-25T16:33:38.615Z,9.10
2023-04-25T16:36:07.571Z,8.91
2023-04-25T16:38:35.692Z,8.58
2023-04-25T16:41:03.595Z,8.51
2023-04-25T16:43:31.871Z,8.48
2023-04-25T16:46:00.498Z,8.68
2023-04-25T16:48:28.394Z,9.04
2023-04-25T16:50:57.684Z,8.74
2023-04-25T16:53:25.715Z,8.94
2023-04-25T16:55:53.748Z,8.64
2023-04-25T16:58:21.982Z,8.67
2023-04-25T17:00:50.002Z,8.40
2023-04-25T17:03:18.134Z,8.07
2023-04-25T17:05:46.664Z,8.52
2023-04-25T17:08:15.994Z,8.61
2023-04-25T17:10:43.987Z,8.24
2023-04-25T17:13:11.888Z,8.53
2023-04-25T17:15:39.820Z,8.50
2023-04-25T17:18:07.788Z,8.10
2023-04-25T17:20:36.010Z,8.23
2023-04-25T17:23:04.020Z,7.79
2023-04-25T17:25:33.774Z,8.04
2023-04-25T17:28:01.716Z,8.33
2023-04-25T17:30:30.487Z,7.86
2023-04-25T17:32:58.412Z,7.84
2023-04-25T17:35:26.877Z,7.94
2023-04-25T17:37:54.787Z,8.76
2023-04-25T17:40:22.719Z,9.18
2023-04-25T17:42:52.081Z,8.97
2023-04-25T17:45:20.059Z,8.74
2023-04-25T17:47:48.091Z,7.77
2023-04-25T17:50:16.882Z,7.63
2023-04-25T17:52:48.302Z,7.70
2023-04-25T17:55:16.353Z,7.75
2023-04-25T17:57:44.323Z,7.66
2023-04-25T18:00:14.760Z,6.77
2023-04-25T18:02:42.846Z,6.86
2023-04-25T18:05:11.237Z,6.73
2023-04-25T18:07:39.220Z,7.00
2023-04-25T18:10:10.230Z,7.10
2023-04-25T18:12:38.375Z,6.60
2023-04-25T18:15:07.690Z,7.06
2023-04-25T18:17:40.390Z,6.97
2023-04-25T18:20:11.943Z,6.77
2023-04-25T18:22:40.430Z,6.53
2023-04-25T18:25:11.056Z,6.66
2023-04-25T18:27:39.185Z,6.77
2023-04-25T18:30:08.930Z,6.67
2023-04-25T18:32:38.563Z,6.71
2023-04-25T18:35:07.320Z,6.36
2023-04-25T18:37:35.240Z,6.52
2023-04-25T18:40:07.245Z,6.28
2023-04-25T18:42:35.184Z,6.38
2023-04-25T18:45:03.129Z,6.42
2023-04-25T18:47:31.024Z,6.42
2023-04-25T18:50:00.273Z,6.60
2023-04-25T18:52:28.171Z,6.57
2023-04-25T18:54:56.200Z,6.62
2023-04-25T18:57:24.172Z,6.78
2023-04-25T18:59:52.276Z,6.75
2023-04-25T19:02:20.371Z,6.51
2023-04-25T19:04:48.394Z,6.72
2023-04-25T19:07:18.085Z,6.52
2023-04-25T19:09:45.986Z,6.45
2023-04-25T19:12:13.915Z,6.63
2023-04-25T19:14:42.879Z,6.43
2023-04-25T19:17:11.786Z,6.17
2023-04-25T19:19:39.721Z,6.15
2023-04-25T19:22:07.696Z,6.07
2023-04-25T19:24:36.952Z,5.92
2023-04-25T19:27:04.922Z,6.08
2023-04-25T19:29:34.090Z,6.12
2023-04-25T19:32:03.439Z,6.06
2023-04-25T19:34:31.375Z,6.38
2023-04-25T19:36:59.277Z,6.13
2023-04-25T19:39:27.458Z,6.12
2023-04-25T19:41:57.586Z,6.20
2023-04-25T19:44:26.050Z,6.17
2023-04-25T19:46:54.124Z,5.87
2023-04-25T19:49:22.330Z,5.94
2023-04-25T19:51:50.264Z,5.85
2023-04-25T19:54:22.827Z,5.72
2023-04-25T19:56:51.280Z,5.84
2023-04-25T19:59:20.574Z,5.98
2023-04-25T20:01:48.875Z,5.71
2023-04-25T20:04:18.303Z,5.74
2023-04-25T20:06:46.293Z,5.77
2023-04-25T20:09:14.232Z,5.44
2023-04-25T20:11:42.453Z,5.48
2023-04-25T20:14:10.395Z,5.68
2023-04-25T20:16:39.803Z,5.48
2023-04-25T20:19:07.799Z,5.38
2023-04-25T20:21:35.821Z,5.47
2023-04-25T20:24:03.703Z,5.65
2023-04-25T20:26:33.958Z,5.75
2023-04-25T20:29:02.164Z,5.75
2023-04-25T20:31:31.259Z,5.72
2023-04-25T20:34:01.009Z,5.74
2023-04-25T20:36:28.986Z,5.66
2023-04-25T20:38:57.205Z,5.69
2023-04-25T20:41:25.217Z,5.72
2023-04-25T20:43:54.242Z,5.70
2023-04-25T20:46:22.350Z,5.75
2023-04-25T20:48:52.792Z,5.51
2023-04-25T20:51:23.046Z,5.51
2023-04-25T20:53:50.990Z,5.60
2023-04-25T20:56:19.054Z,5.73
2023-04-25T20:58:47.395Z,5.64
2023-04-25T21:01:15.305Z,5.56
2023-04-25T21:03:43.660Z,5.43
2023-04-25T21:06:11.781Z,5.74
2023-04-25T21:08:41.204Z,5.21
2023-04-25T21:11:09.841Z,5.04
2023-04-25T21:13:37.753Z,5.35
2023-04-25T21:16:06.690Z,5.36
2023-04-25T21:18:34.862Z,5.38
2023-04-25T21:21:04.251Z,5.37
2023-04-25T21:23:32.988Z,5.53
2023-04-25T21:26:02.260Z,5.44
2023-04-25T21:28:30.206Z,5.26
2023-04-25T21:30:58.289Z,5.20
2023-04-25T21:33:26.222Z,5.47
2023-04-25T21:35:54.104Z,5.41
2023-04-25T21:38:22.227Z,5.41
2023-04-25T21:40:50.860Z,5.49
2023-04-25T21:43:20.152Z,5.49
2023-04-25T21:46:14.771Z,5.16
2023-04-25T21:48:36.112Z,5.29
2023-04-25T21:51:04.242Z,5.15
2023-04-25T21:53:32.174Z,5.19
2023-04-25T21:56:00.226Z,5.29
2023-04-25T21:58:29.494Z,5.41
2023-04-25T22:00:57.406Z,5.40
2023-04-25T22:03:25.535Z,5.46
2023-04-25T22:05:55.795Z,4.90
2023-04-25T22:08:23.697Z,5.04
2023-04-25T22:10:57.267Z,4.79
2023-04-25T22:13:25.915Z,4.89
2023-04-25T22:15:55.220Z,4.80
2023-04-25T22:18:23.348Z,4.89
2023-04-25T22:20:51.256Z,5.00
2023-04-25T22:23:19.163Z,4.91
2023-04-25T22:25:47.466Z,4.91
2023-04-25T22:28:15.348Z,5.07
2023-04-25T22:30:43.986Z,5.13
2023-04-25T22:33:13.290Z,5.02
2023-04-25T22:35:41.367Z,4.92
2023-04-25T22:38:09.288Z,4.75
2023-04-25T22:40:37.669Z,4.74
2023-04-25T22:43:05.650Z,4.86
2023-04-25T22:45:35.812Z,5.01
2023-04-25T22:48:03.846Z,4.78
2023-04-25T22:50:33.523Z,4.93
2023-04-25T22:53:01.730Z,4.70
2023-04-25T22:55:29.624Z,4.76
2023-04-25T22:57:57.526Z,4.73
2023-04-25T23:00:26.351Z,4.70
2023-04-25T23:02:55.084Z,4.72
2023-04-25T23:05:24.448Z,4.65
2023-04-25T23:07:53.830Z,4.69
2023-04-25T23:10:21.737Z,4.38
2023-04-25T23:12:49.616Z,4.46
2023-04-25T23:15:18.038Z,4.70
2023-04-25T23:17:46.020Z,4.75
2023-04-25T23:20:14.520Z,4.65
2023-04-25T23:22:42.783Z,4.73
2023-04-25T23:25:12.814Z,4.51
2023-04-25T23:27:40.707Z,4.59
2023-04-25T23:30:10.650Z,4.69
2023-04-25T23:32:39.124Z,4.73
2023-04-25T23:35:08.533Z,4.55
2023-04-25T23:37:37.231Z,4.64
2023-04-25T23:40:08.378Z,4.94
2023-04-25T23:42:38.801Z,4.71
2023-04-25T23:45:08.291Z,4.60
2023-04-25T23:47:36.612Z,4.55
2023-04-25T23:50:04.984Z,4.51
2023-04-25T23:52:32.935Z,4.48
2023-04-25T23:55:01.078Z,4.60
2023-04-25T23:57:29.083Z,4.72
2023-04-25T23:59:58.346Z,4.74
